createdAt,value
2023-03-03T00:01:53.792Z,64.91
2023-03-03T00:04:22.789Z,64.99
2023-03-03T00:06:53.002Z,64.57
2023-03-03T00:09:25.192Z,64.72
2023-03-03T00:12:00.435Z,64.87
2023-03-03T00:14:33.500Z,65.08
2023-03-03T00:17:08.472Z,64.82
2023-03-03T00:19:44.961Z,63.81
2023-03-03T00:22:23.499Z,63.60
2023-03-03T00:24:56.763Z,63.79
2023-03-03T00:27:29.886Z,63.79
2023-03-03T00:30:04.270Z,63.63
2023-03-03T00:32:39.677Z,63.82
2023-03-03T00:35:26.994Z,63.31
2023-03-03T00:38:00.136Z,64.13
2023-03-03T00:40:34.205Z,64.05
2023-03-03T00:43:16.919Z,63.82
2023-03-03T00:45:45.988Z,65.24
2023-03-03T00:48:25.199Z,63.75
2023-03-03T00:50:54.217Z,63.01
2023-03-03T00:53:27.094Z,64.79
2023-03-03T00:55:55.065Z,65.47
2023-03-03T00:58:26.254Z,64.58
2023-03-03T01:00:56.557Z,65.55
2023-03-03T01:03:27.287Z,65.88
2023-03-03T01:06:02.324Z,67.08
2023-03-03T01:08:39.030Z,64.15
2023-03-03T01:11:15.236Z,65.03
2023-03-03T01:13:49.664Z,64.68
2023-03-03T01:16:17.713Z,66.12
2023-03-03T01:18:50.929Z,67.99
2023-03-03T01:21:24.012Z,67.73
2023-03-03T01:26:35.032Z,66.01
2023-03-03T01:29:07.247Z,65.31
2023-03-03T01:31:41.093Z,64.84
2023-03-03T01:34:09.674Z,64.90
2023-03-03T01:36:38.005Z,63.58
2023-03-03T01:39:07.252Z,64.26
2023-03-03T01:41:37.482Z,64.77
2023-03-03T01:44:09.738Z,66.01
2023-03-03T01:46:47.841Z,66.21
2023-03-03T01:49:17.346Z,65.58
2023-03-03T01:51:49.438Z,64.70
2023-03-03T01:54:20.549Z,65.59
2023-03-03T01:56:52.834Z,66.46
2023-03-03T01:59:26.994Z,67.04
2023-03-03T02:01:57.950Z,67.87
2023-03-03T02:04:28.558Z,67.73
2023-03-03T02:07:07.113Z,67.10
2023-03-03T02:09:41.775Z,67.68
2023-03-03T02:12:13.249Z,67.08
2023-03-03T02:14:42.431Z,66.90
2023-03-03T02:17:10.399Z,66.37
2023-03-03T02:19:48.989Z,67.03
2023-03-03T02:22:19.007Z,68.21
2023-03-03T02:24:50.317Z,67.53
2023-03-03T02:27:21.163Z,66.68
2023-03-03T02:29:49.295Z,65.35
2023-03-03T02:32:19.989Z,65.82
2023-03-03T02:34:49.457Z,67.57
2023-03-03T02:37:18.224Z,66.42
2023-03-03T02:39:46.659Z,65.12
2023-03-03T02:42:18.531Z,67.56
2023-03-03T02:44:47.755Z,66.90
2023-03-03T02:47:15.624Z,67.06
2023-03-03T02:49:43.788Z,67.21
2023-03-03T02:52:18.126Z,67.96
2023-03-03T02:54:45.979Z,68.06
2023-03-03T02:57:16.180Z,67.93
2023-03-03T02:59:44.050Z,68.17
2023-03-03T03:02:13.527Z,67.48
2023-03-03T03:04:43.539Z,67.51
2023-03-03T03:07:18.656Z,66.83
2023-03-03T03:09:47.941Z,65.75
2023-03-03T03:12:16.091Z,65.11
2023-03-03T03:14:46.855Z,65.89
2023-03-03T03:17:16.184Z,65.15
2023-03-03T03:19:44.035Z,64.55
2023-03-03T03:22:11.921Z,64.30
2023-03-03T03:24:41.952Z,64.56
2023-03-03T03:27:11.593Z,66.48
2023-03-03T03:29:42.026Z,65.47
2023-03-03T03:32:12.991Z,65.65
2023-03-03T03:34:43.442Z,66.41
2023-03-03T03:37:11.301Z,66.99
2023-03-03T03:39:42.132Z,66.87
2023-03-03T03:42:12.769Z,67.34
2023-03-03T03:44:43.359Z,66.15
2023-03-03T03:47:18.344Z,65.96
2023-03-03T03:49:47.984Z,66.31
2023-03-03T03:52:16.839Z,65.38
2023-03-03T03:54:45.129Z,65.91
2023-03-03T03:57:17.376Z,66.02
2023-03-03T03:59:47.332Z,65.19
2023-03-03T04:02:16.470Z,64.49
2023-03-03T04:04:46.561Z,64.09
2023-03-03T04:07:17.037Z,65.00
2023-03-03T04:09:44.907Z,64.93
2023-03-03T04:12:16.579Z,63.96
2023-03-03T04:14:46.181Z,64.97
2023-03-03T04:17:18.188Z,65.76
2023-03-03T04:19:56.366Z,68.85
2023-03-03T04:22:26.881Z,69.73
2023-03-03T04:24:57.483Z,66.63
2023-03-03T04:27:28.230Z,66.18
2023-03-03T04:30:03.474Z,65.04
2023-03-03T04:32:33.996Z,63.75
2023-03-03T04:35:08.391Z,64.26
2023-03-03T04:37:39.942Z,64.69
2023-03-03T04:40:12.633Z,64.43
2023-03-03T04:42:40.446Z,62.78
2023-03-03T04:45:24.672Z,61.54
2023-03-03T04:47:57.972Z,61.23
2023-03-03T04:50:25.941Z,60.84
2023-03-03T04:52:56.367Z,61.48
2023-03-03T04:55:26.861Z,61.87
2023-03-03T04:57:54.681Z,62.63
2023-03-03T05:00:22.777Z,61.58
2023-03-03T05:02:50.723Z,61.04
2023-03-03T05:05:21.771Z,59.76
2023-03-03T05:07:51.968Z,61.08
2023-03-03T05:10:21.971Z,62.80
2023-03-03T05:12:49.844Z,63.18
2023-03-03T05:15:17.811Z,61.88
2023-03-03T05:17:45.950Z,63.08
2023-03-03T05:20:16.127Z,61.71
2023-03-03T05:22:44.679Z,60.84
2023-03-03T05:25:17.370Z,59.77
2023-03-03T05:27:46.582Z,59.51
2023-03-03T05:30:18.612Z,59.75
2023-03-03T05:32:48.923Z,60.01
2023-03-03T05:35:17.942Z,60.04
2023-03-03T05:37:51.635Z,59.92
2023-03-03T05:40:20.510Z,60.72
2023-03-03T05:42:54.772Z,60.30
2023-03-03T05:45:25.502Z,60.86
2023-03-03T05:47:55.402Z,62.32
2023-03-03T05:50:28.678Z,61.42
2023-03-03T05:52:56.488Z,61.28
2023-03-03T05:55:47.669Z,61.33
2023-03-03T05:58:26.547Z,60.99
2023-03-03T06:00:57.376Z,61.49
2023-03-03T06:03:25.406Z,61.57
2023-03-03T06:05:56.345Z,61.57
2023-03-03T06:08:24.505Z,61.23
2023-03-03T06:10:54.671Z,61.46
2023-03-03T06:13:23.987Z,60.26
2023-03-03T06:15:54.937Z,60.99
2023-03-03T06:18:22.881Z,60.52
2023-03-03T06:20:57.132Z,61.10
2023-03-03T06:23:28.497Z,60.91
2023-03-03T06:25:59.042Z,61.42
2023-03-03T06:28:30.204Z,60.12
2023-03-03T06:31:01.300Z,61.07
2023-03-03T06:33:29.241Z,60.23
2023-03-03T06:35:57.565Z,61.07
2023-03-03T06:38:28.408Z,60.74
2023-03-03T06:40:56.734Z,61.80
2023-03-03T06:43:24.523Z,62.16
2023-03-03T06:45:53.933Z,62.74
2023-03-03T06:48:22.166Z,62.76
2023-03-03T06:50:55.079Z,62.51
2023-03-03T06:53:24.227Z,64.93
2023-03-03T06:55:52.511Z,62.69
2023-03-03T06:58:21.895Z,62.05
2023-03-03T07:00:56.759Z,62.07
2023-03-03T07:03:29.762Z,61.39
2023-03-03T07:05:57.655Z,63.26
2023-03-03T07:08:32.565Z,62.18
2023-03-03T07:11:08.866Z,61.23
2023-03-03T07:13:49.294Z,61.62
2023-03-03T07:16:20.015Z,61.66
2023-03-03T07:18:51.578Z,62.09
2023-03-03T07:21:30.499Z,61.81
2023-03-03T07:24:02.240Z,62.24
2023-03-03T07:26:33.149Z,61.99
2023-03-03T07:29:18.258Z,61.58
2023-03-03T07:31:52.702Z,62.33
2023-03-03T07:34:31.489Z,61.91
2023-03-03T07:37:07.182Z,61.36
2023-03-03T07:39:40.282Z,59.21
2023-03-03T07:42:22.623Z,57.39
2023-03-03T07:44:56.252Z,58.21
2023-03-03T07:47:28.443Z,56.45
2023-03-03T07:50:00.845Z,56.84
2023-03-03T07:52:32.596Z,58.16
2023-03-03T07:55:03.708Z,56.97
2023-03-03T07:57:40.028Z,57.39
2023-03-03T08:01:02.761Z,58.04
2023-03-03T08:03:33.034Z,56.41
2023-03-03T08:06:03.305Z,56.37
2023-03-03T08:08:32.509Z,55.33
2023-03-03T08:11:01.395Z,56.82
2023-03-03T08:13:41.314Z,58.04
2023-03-03T08:16:26.915Z,56.84
2023-03-03T08:18:57.745Z,56.84
2023-03-03T08:21:28.521Z,57.02
2023-03-03T08:23:56.993Z,56.93
2023-03-03T08:26:25.807Z,57.05
2023-03-03T08:28:58.419Z,56.28
2023-03-03T08:31:40.303Z,56.73
2023-03-03T08:34:10.185Z,56.79
2023-03-03T08:36:38.224Z,56.75
2023-03-03T08:39:09.414Z,56.51
2023-03-03T08:41:37.582Z,56.79
2023-03-03T08:44:06.316Z,56.76
2023-03-03T08:46:34.272Z,57.71
2023-03-03T08:49:02.396Z,55.88
2023-03-03T08:51:34.257Z,55.64
2023-03-03T08:54:02.714Z,55.53
2023-03-03T08:56:30.734Z,55.04
2023-03-03T08:59:02.498Z,56.03
2023-03-03T09:01:31.010Z,57.28
2023-03-03T09:03:59.119Z,55.26
2023-03-03T09:06:29.981Z,56.06
2023-03-03T09:09:00.441Z,54.69
2023-03-03T09:11:29.642Z,55.11
2023-03-03T09:14:05.996Z,55.59
2023-03-03T09:16:38.744Z,56.39
2023-03-03T09:19:23.485Z,56.14
2023-03-03T09:21:52.720Z,55.65
2023-03-03T09:24:28.018Z,55.95
2023-03-03T09:26:59.646Z,55.44
2023-03-03T09:29:29.254Z,56.08
2023-03-03T09:32:00.003Z,56.95
2023-03-03T09:34:42.613Z,56.92
2023-03-03T09:37:23.617Z,56.99
2023-03-03T09:39:54.513Z,56.58
2023-03-03T09:42:43.261Z,56.71
2023-03-03T09:45:41.489Z,57.48
2023-03-03T09:48:25.041Z,57.70
2023-03-03T09:51:17.538Z,56.30
2023-03-03T09:54:01.677Z,56.65
2023-03-03T09:56:42.762Z,55.97
2023-03-03T09:59:27.803Z,55.48
2023-03-03T10:02:21.619Z,55.80
2023-03-03T10:05:17.258Z,54.38
2023-03-03T10:07:55.150Z,54.75
2023-03-03T10:10:36.891Z,53.76
2023-03-03T10:13:19.613Z,53.23
2023-03-03T10:15:58.042Z,53.42
2023-03-03T10:18:33.611Z,54.26
2023-03-03T10:21:09.775Z,54.65
2023-03-03T10:24:01.367Z,54.43
2023-03-03T10:26:45.744Z,53.95
2023-03-03T10:29:34.249Z,56.91
2023-03-03T10:32:23.050Z,52.86
2023-03-03T10:35:18.521Z,53.40
2023-03-03T10:37:57.933Z,52.93
2023-03-03T10:40:33.360Z,53.45
2023-03-03T10:43:31.243Z,53.14
2023-03-03T10:46:17.776Z,53.24
2023-03-03T10:49:11.786Z,53.77
2023-03-03T10:51:49.459Z,52.89
2023-03-03T10:54:32.254Z,53.49
2023-03-03T10:57:08.787Z,53.44
2023-03-03T10:59:58.714Z,54.64
2023-03-03T11:02:37.362Z,55.43
2023-03-03T11:05:20.847Z,54.37
2023-03-03T11:07:50.926Z,54.69
2023-03-03T11:10:45.770Z,56.46
2023-03-03T11:13:20.565Z,54.35
2023-03-03T11:16:29.672Z,54.36
2023-03-03T11:19:12.476Z,54.56
2023-03-03T11:21:43.577Z,54.47
2023-03-03T11:24:28.198Z,55.42
2023-03-03T11:27:14.070Z,53.61
2023-03-03T11:29:51.801Z,52.06
2023-03-03T11:32:27.332Z,53.09
2023-03-03T11:35:05.226Z,52.88
2023-03-03T11:37:41.232Z,52.81
2023-03-03T11:40:18.043Z,52.49
2023-03-03T11:42:57.290Z,53.60
2023-03-03T11:45:31.572Z,54.50
2023-03-03T11:48:03.792Z,52.73
2023-03-03T11:50:42.400Z,52.79
2023-03-03T11:53:27.378Z,52.65
2023-03-03T11:55:59.776Z,51.74
2023-03-03T11:58:34.760Z,53.29
2023-03-03T12:01:11.669Z,51.15
2023-03-03T12:03:42.068Z,51.31
2023-03-03T12:06:21.717Z,51.01
2023-03-03T12:09:03.834Z,51.96
2023-03-03T12:11:39.356Z,51.27
2023-03-03T12:14:14.794Z,51.63
2023-03-03T12:16:51.761Z,52.91
2023-03-03T12:19:27.216Z,51.07
2023-03-03T12:25:19.069Z,49.50
2023-03-03T12:27:53.388Z,50.81
2023-03-03T12:30:36.634Z,51.81
2023-03-03T12:33:15.134Z,52.21
2023-03-03T12:35:54.527Z,52.94
2023-03-03T12:38:35.271Z,52.59
2023-03-03T12:41:09.511Z,52.59
2023-03-03T12:44:01.885Z,52.74
2023-03-03T12:46:40.159Z,52.14
2023-03-03T12:49:08.582Z,51.70
2023-03-03T12:51:49.867Z,50.96
2023-03-03T12:54:37.352Z,51.05
2023-03-03T12:57:15.823Z,50.09
2023-03-03T12:59:52.309Z,49.10
2023-03-03T13:02:40.286Z,49.56
2023-03-03T13:05:19.768Z,48.93
2023-03-03T13:07:57.291Z,46.24
2023-03-03T13:10:33.071Z,45.66
2023-03-03T13:13:05.277Z,44.29
2023-03-03T13:15:46.311Z,45.88
2023-03-03T13:18:41.301Z,47.63
2023-03-03T13:21:12.551Z,47.02
2023-03-03T13:23:48.103Z,46.33
2023-03-03T13:26:21.849Z,46.26
2023-03-03T13:29:01.884Z,48.51
2023-03-03T13:31:35.050Z,48.09
2023-03-03T13:34:03.932Z,45.43
2023-03-03T13:36:46.144Z,45.82
2023-03-03T13:39:25.316Z,45.67
2023-03-03T13:41:58.101Z,47.42
2023-03-03T13:44:31.332Z,44.65
2023-03-03T13:47:13.109Z,44.71
2023-03-03T13:50:19.836Z,46.00
2023-03-03T13:52:59.409Z,45.05
2023-03-03T13:55:33.099Z,44.75
2023-03-03T13:58:10.421Z,44.53
2023-03-03T14:00:47.569Z,44.05
2023-03-03T14:03:41.636Z,46.02
2023-03-03T14:06:16.378Z,45.96
2023-03-03T14:09:02.916Z,45.73
2023-03-03T14:11:38.093Z,45.76
2023-03-03T14:14:25.403Z,46.85
2023-03-03T14:16:56.777Z,45.56
2023-03-03T14:19:30.195Z,46.46
2023-03-03T14:22:10.049Z,46.44
2023-03-03T14:25:06.276Z,45.98
2023-03-03T14:27:40.363Z,44.17
2023-03-03T14:30:28.167Z,44.16
2023-03-03T14:33:07.374Z,44.79
2023-03-03T14:35:39.082Z,47.04
2023-03-03T14:38:12.210Z,46.23
2023-03-03T14:40:42.947Z,45.57
2023-03-03T14:43:22.386Z,45.29
2023-03-03T14:45:51.967Z,46.17
2023-03-03T14:48:32.659Z,46.40
2023-03-03T14:51:04.785Z,46.61
2023-03-03T14:53:37.565Z,46.03
2023-03-03T14:56:22.504Z,45.39
2023-03-03T14:58:51.053Z,45.46
2023-03-03T15:01:37.176Z,45.39
2023-03-03T15:04:12.110Z,46.00
2023-03-03T15:06:46.176Z,45.59
2023-03-03T15:09:33.806Z,47.09
2023-03-03T15:12:08.196Z,46.09
2023-03-03T15:14:40.007Z,46.59
2023-03-03T15:17:31.083Z,46.19
2023-03-03T15:20:38.354Z,47.56
2023-03-03T15:23:45.323Z,47.31
2023-03-03T15:26:18.727Z,47.77
2023-03-03T15:28:55.642Z,47.85
2023-03-03T15:31:33.081Z,47.72
2023-03-03T15:34:16.962Z,48.27
2023-03-03T15:36:48.884Z,47.58
2023-03-03T15:39:26.111Z,46.84
2023-03-03T15:41:59.255Z,47.45
2023-03-03T15:44:36.797Z,47.63
2023-03-03T15:47:14.327Z,48.81
2023-03-03T15:49:57.921Z,47.66
2023-03-03T15:52:43.067Z,47.54
2023-03-03T15:55:24.827Z,47.49
2023-03-03T15:58:01.607Z,47.58
2023-03-03T16:01:10.649Z,49.04
2023-03-03T16:03:48.529Z,49.33
2023-03-03T16:06:20.610Z,49.01
2023-03-03T16:08:54.390Z,49.42
2023-03-03T16:11:27.901Z,49.63
2023-03-03T16:14:07.302Z,49.94
2023-03-03T16:16:48.317Z,49.91
2023-03-03T16:19:32.079Z,48.64
2023-03-03T16:22:15.821Z,49.29
2023-03-03T16:24:49.244Z,48.37
2023-03-03T16:27:23.095Z,48.68
2023-03-03T16:30:05.268Z,49.57
2023-03-03T16:32:37.465Z,49.77
2023-03-03T16:35:24.121Z,50.45
2023-03-03T16:38:02.993Z,49.88
2023-03-03T16:40:33.591Z,49.25
2023-03-03T16:43:16.528Z,50.43
2023-03-03T16:45:46.061Z,49.66
2023-03-03T16:48:26.885Z,49.58
2023-03-03T16:51:06.090Z,50.12
2023-03-03T16:53:47.765Z,49.27
2023-03-03T16:56:19.607Z,50.14
2023-03-03T16:58:55.964Z,49.92
2023-03-03T17:01:29.833Z,50.40
2023-03-03T17:04:03.958Z,49.92
2023-03-03T17:06:42.704Z,51.28
2023-03-03T17:09:39.557Z,52.30
2023-03-03T17:12:27.921Z,53.83
2023-03-03T17:15:13.351Z,53.10
2023-03-03T17:17:45.243Z,52.95
2023-03-03T17:20:22.958Z,54.95
2023-03-03T17:23:06.430Z,54.54
2023-03-03T17:25:40.208Z,56.17
2023-03-03T17:28:20.455Z,57.78
2023-03-03T17:30:54.494Z,56.09
2023-03-03T17:33:43.376Z,57.96
2023-03-03T17:36:21.525Z,56.29
2023-03-03T17:38:58.897Z,56.20
2023-03-03T17:41:37.984Z,56.42
2023-03-03T17:44:11.191Z,58.70
2023-03-03T17:46:47.389Z,58.39
2023-03-03T17:49:43.787Z,59.42
2023-03-03T17:52:33.527Z,59.61
2023-03-03T17:55:13.748Z,60.97
2023-03-03T17:57:54.860Z,60.71
2023-03-03T18:00:31.739Z,61.27
2023-03-03T18:03:18.161Z,61.73
2023-03-03T18:06:03.958Z,61.59
2023-03-03T18:09:14.202Z,62.19
2023-03-03T18:11:55.644Z,62.01
2023-03-03T18:14:35.289Z,62.79
2023-03-03T18:17:21.473Z,63.76
2023-03-03T18:20:06.441Z,63.05
2023-03-03T18:22:35.734Z,64.26
2023-03-03T18:25:07.512Z,64.46
2023-03-03T18:27:37.542Z,64.14
2023-03-03T18:30:26.765Z,64.31
2023-03-03T18:33:13.025Z,64.46
2023-03-03T18:35:43.906Z,65.36
2023-03-03T18:38:30.353Z,64.41
2023-03-03T18:41:00.127Z,65.27
2023-03-03T18:43:55.368Z,65.54
2023-03-03T18:46:54.249Z,65.20
2023-03-03T18:49:52.630Z,66.38
2023-03-03T18:52:27.609Z,65.89
2023-03-03T18:55:28.461Z,66.60
2023-03-03T18:58:34.695Z,66.93
2023-03-03T19:01:13.691Z,66.99
2023-03-03T19:07:16.126Z,66.86
2023-03-03T19:09:57.630Z,67.26
2023-03-03T19:12:51.777Z,67.16
2023-03-03T19:15:52.509Z,66.82
2023-03-03T19:18:23.758Z,67.05
2023-03-03T19:20:57.958Z,67.74
2023-03-03T19:23:49.768Z,66.85
2023-03-03T19:26:55.462Z,67.41
2023-03-03T19:29:41.592Z,66.67
2023-03-03T19:32:29.395Z,66.41
2023-03-03T19:35:11.121Z,66.62
2023-03-03T19:37:54.277Z,66.75
2023-03-03T19:40:28.750Z,67.03
2023-03-03T19:43:21.418Z,66.62
2023-03-03T19:46:00.652Z,68.06
2023-03-03T19:48:35.888Z,67.74
2023-03-03T19:51:14.039Z,67.79
2023-03-03T19:53:54.081Z,67.27
2023-03-03T19:56:29.412Z,67.21
2023-03-03T19:59:09.565Z,67.94
2023-03-03T20:01:48.163Z,67.74
2023-03-03T20:04:43.373Z,67.42
2023-03-03T20:07:18.941Z,67.21
2023-03-03T20:09:50.946Z,67.47
2023-03-03T20:12:27.355Z,67.35
2023-03-03T20:14:58.491Z,67.07
2023-03-03T20:17:41.321Z,66.56
2023-03-03T20:20:25.327Z,67.31
2023-03-03T20:22:59.045Z,66.21
2023-03-03T20:25:29.804Z,66.62
2023-03-03T20:28:07.090Z,67.04
2023-03-03T20:30:57.867Z,66.95
2023-03-03T20:33:53.198Z,67.63
2023-03-03T20:36:27.901Z,66.72
2023-03-03T20:39:06.564Z,65.56
2023-03-03T20:41:49.793Z,64.76
2023-03-03T20:44:26.030Z,65.59
2023-03-03T20:47:00.134Z,63.48
2023-03-03T20:50:05.173Z,64.27
2023-03-03T20:52:41.592Z,64.10
2023-03-03T20:55:19.040Z,63.03
2023-03-03T20:57:50.643Z,62.81
2023-03-03T21:00:25.132Z,60.66
2023-03-03T21:03:00.311Z,60.12
2023-03-03T21:05:31.209Z,61.37
2023-03-03T21:08:02.373Z,58.81
2023-03-03T21:10:33.955Z,59.49
2023-03-03T21:13:27.817Z,61.30
2023-03-03T21:15:57.668Z,60.13
2023-03-03T21:18:26.456Z,59.41
2023-03-03T21:20:54.710Z,59.68
2023-03-03T21:23:27.732Z,58.11
2023-03-03T21:25:56.111Z,58.75
2023-03-03T21:28:26.948Z,59.56
2023-03-03T21:31:06.244Z,58.61
2023-03-03T21:33:45.594Z,60.49
2023-03-03T21:36:16.022Z,61.14
2023-03-03T21:38:46.084Z,63.65
2023-03-03T21:41:18.204Z,63.67
2023-03-03T21:43:47.874Z,63.78
2023-03-03T21:46:21.587Z,63.80
2023-03-03T21:48:50.405Z,64.18
2023-03-03T21:51:20.418Z,65.11
2023-03-03T21:53:48.492Z,65.96
2023-03-03T21:56:23.225Z,66.08
2023-03-03T21:58:53.146Z,67.32
2023-03-03T22:01:24.971Z,67.50
2023-03-03T22:03:52.834Z,67.70
2023-03-03T22:06:23.749Z,68.39
2023-03-03T22:08:54.169Z,66.25
2023-03-03T22:11:23.043Z,67.53
2023-03-03T22:13:50.954Z,68.37
2023-03-03T22:16:18.927Z,67.97
2023-03-03T22:18:51.638Z,68.60
2023-03-03T22:21:19.658Z,69.21
2023-03-03T22:23:47.466Z,68.52
2023-03-03T22:26:15.352Z,68.99
2023-03-03T22:28:44.485Z,68.88
2023-03-03T22:31:14.528Z,67.71
2023-03-03T22:33:42.647Z,65.80
2023-03-03T22:36:13.719Z,63.58
2023-03-03T22:38:44.414Z,62.31
2023-03-03T22:41:17.309Z,62.12
2023-03-03T22:43:48.487Z,61.23
2023-03-03T22:46:19.389Z,61.98
2023-03-03T22:48:47.243Z,62.62
2023-03-03T22:51:21.073Z,62.69
2023-03-03T22:53:57.170Z,62.83
2023-03-03T22:56:27.759Z,64.36
2023-03-03T22:58:55.588Z,66.28
2023-03-03T23:01:25.190Z,67.48
2023-03-03T23:03:53.323Z,68.36
2023-03-03T23:06:26.468Z,68.73
2023-03-03T23:08:57.531Z,68.89
2023-03-03T23:11:34.786Z,68.60
2023-03-03T23:14:15.027Z,69.96
2023-03-03T23:16:43.058Z,70.45
2023-03-03T23:19:11.725Z,69.28
2023-03-03T23:21:42.593Z,67.90
2023-03-03T23:24:11.312Z,67.95
2023-03-03T23:26:40.316Z,67.29
2023-03-03T23:29:11.420Z,66.35
2023-03-03T23:31:39.473Z,65.92
2023-03-03T23:34:09.659Z,64.25
2023-03-03T23:36:38.664Z,63.91
2023-03-03T23:39:12.972Z,64.80
2023-03-03T23:41:45.058Z,64.31
2023-03-03T23:44:13.216Z,63.48
2023-03-03T23:46:52.258Z,64.87
2023-03-03T23:49:20.174Z,63.63
2023-03-03T23:51:51.047Z,64.73
2023-03-03T23:54:21.578Z,65.24
2023-03-03T23:56:53.065Z,64.94
2023-03-03T23:59:21.038Z,65.24
